Hardy, Virginia
Current Conditions -  °F | °C
As of 5:54 PM on Saturday 25 Oct 2014 (Local Time) from KROA Reporting Station
Scattered Clouds Scattered Clouds  
Wind Chill: 70°   Ceiling: Unl
Heat Index: 70°   Visibility: 10mi
Dew Point: 41°   Wind: 6mph
Humidity: 35%   Direction: 280°W
Pressure: 29.9"   Gusts: NA
Location:  37.17°N, 79.73°W
Report Text: KROA 252154Z 28005KT 10SM FEW055 SCT080 21/05 A2990 RMK AO2 SLP119 T02110050
Loading
Personal Weather Stations






























Interactive Weather Map
Tropical Storm Tracking
New forecast layout! Learn more

10-Day Weather Forecast

Advertisements
Track Severe Weather on mobile